Thursday, May 24, 2018, 3:27 PM EDT
Back to Local

KJST, Johnstown-cambria Co Airport

Location: Johnstown, PA, United States Lat: 40.317
Local Time: 3:27 PM EDT (19:27 GMT) Lon: -78.833
Time Zone: US/Eastern Elev: 2283 ft

Show me the last for .
Show Decoded

2018-05-24 14:54 METAR KJST 241854Z AUTO 22003KT 10SM CLR 24/06 A3022 RMK AO2 SLP225 T02390061 =
2018-05-24 13:54 METAR KJST 241754Z AUTO VRB04KT 10SM CLR 24/06 A3024 RMK AO2 SLP229 T02440061
                 10244 20156 58008 =
2018-05-24 12:54 METAR KJST 241654Z AUTO VRB06KT 10SM CLR 23/08 A3025 RMK AO2 SLP235 T02330078 =
2018-05-24 11:54 METAR KJST 241554Z AUTO 00000KT 10SM CLR 22/09 A3026 RMK AO2 SLP239 T02170094 =
2018-05-24 10:54 METAR KJST 241454Z AUTO 11004KT 10SM CLR 21/08 A3027 RMK AO2 SLP240 T02060078
                 50003 =
2018-05-24 09:54 METAR KJST 241354Z AUTO VRB04KT 10SM CLR 20/07 A3027 RMK AO2 SLP240 T02000067 =
2018-05-24 08:54 METAR KJST 241254Z AUTO 00000KT 10SM CLR 18/09 A3026 RMK AO2 SLP239 T01830089 =
2018-05-24 07:54 METAR KJST 241154Z AUTO 00000KT 10SM CLR 16/12 A3026 RMK AO2 SLP238 T01560117
                 10161 20122 51012 =
2018-05-24 06:54 METAR KJST 241054Z AUTO 00000KT 10SM CLR 13/10 A3025 RMK AO2 SLP237 T01330100 =
2018-05-24 05:54 METAR KJST 240954Z AUTO 00000KT 10SM CLR 13/09 A3023 RMK AO2 SLP230 T01330089 =
2018-05-24 04:54 METAR KJST 240854Z AUTO 21003KT 10SM CLR 12/09 A3022 RMK AO2 SLP227 T01220094
                 53002 =
2018-05-24 03:54 METAR KJST 240754Z AUTO 23003KT 10SM CLR 13/10 A3021 RMK AO2 SLP225 T01280100 =
2018-05-24 02:54 METAR KJST 240654Z AUTO 22003KT 10SM CLR 13/10 A3021 RMK AO2 SLP226 T01330100 =
2018-05-24 01:54 METAR KJST 240554Z AUTO 23003KT 10SM CLR 15/11 A3021 RMK AO2 SLP226 T01500106
                 10189 20128 51009 =
2018-05-24 00:54 METAR KJST 240454Z AUTO 27004KT 10SM CLR 14/11 A3021 RMK AO2 SLP225 T01440106
                 402110139 =
2018-05-23 23:54 METAR KJST 240354Z AUTO 29006KT 10SM CLR 16/11 A3020 RMK AO2 SLP221 T01560111 =
2018-05-23 22:54 METAR KJST 240254Z AUTO 25005KT 10SM CLR 16/11 A3018 RMK AO2 SLP218 T01560111
                 53009 =
2018-05-23 21:54 METAR KJST 240154Z AUTO 27005KT 10SM CLR 16/12 A3017 RMK AO2 SLP213 T01610117 =
2018-05-23 20:54 METAR KJST 240054Z AUTO 29007KT 10SM CLR 17/12 A3016 RMK AO2 SLP209 T01720117 =
2018-05-23 19:54 METAR KJST 232354Z AUTO 29007KT 10SM CLR 19/12 A3016 RMK AO2 SLP205 T01890117
                 10211 20172 51005 =
2018-05-23 18:54 METAR KJST 232254Z AUTO 31007KT 10SM CLR 20/12 A3015 RMK AO2 SLP201 T02000117 =
2018-05-23 17:54 METAR KJST 232154Z AUTO VRB06KT 10SM FEW039 21/12 A3015 RMK AO2 SLP201 T02060117
                 =
2018-05-23 16:54 METAR KJST 232054Z AUTO 32010KT 10SM SCT033 21/12 A3014 RMK AO2 SLP197 T02060122
                 55001 =
2018-05-23 16:04 METAR KJST 232004Z AUTO 34006KT 10SM SCT027 SCT034 19/12 A3014 RMK AO2 T01940122
                 =
2018-05-23 15:54 METAR KJST 231954Z AUTO 32009KT 10SM BKN027 BKN034 19/12 A3014 RMK AO2 SLP197
                 T01890122 =

Support USWX by starting your Amazon purchase here.